Time;durP1;ratioP1;P1;durP2;ratioP2;P2;SDS_P1;SDS_P2;PMS_P1;PMS_P2;Temp;Humidity;BMP_temperature;BMP_pressure;BME280_temperature;BME280_humidity;BME280_pressure;Samples;Min_cycle;Max_cycle;Signal;HPM_P1;HPM_P2
2022/11/29 00:01:20;;;;;;;11.70;5.13;;;7.40;98.00;;;;;;5051647;28;20464;-64
2022/11/29 00:03:48;;;;;;;8.83;5.30;;;7.30;98.00;;;;;;5051681;28;20485;-65
2022/11/29 00:06:17;;;;;;;6.80;3.77;;;7.30;98.00;;;;;;5051737;28;20457;-64
2022/11/29 00:08:44;;;;;;;5.97;4.03;;;7.40;98.00;;;;;;5051682;28;20465;-64
2022/11/29 00:12:10;;;;;;;9.17;4.93;;;7.40;98.00;;;;;;5051758;28;20446;-64
2022/11/29 00:14:01;;;;;;;10.23;4.77;;;7.40;98.00;;;;;;5051754;28;21005;-65
2022/11/29 00:16:31;;;;;;;7.93;3.90;;;7.60;98.00;;;;;;5051764;28;20826;-65
2022/11/29 00:18:58;;;;;;;7.90;3.80;;;7.50;98.00;;;;;;5033996;28;20456;-65
2022/11/29 00:21:27;;;;;;;8.87;4.17;;;7.50;98.00;;;;;;5051606;28;20448;-65
2022/11/29 00:23:55;;;;;;;10.93;4.50;;;7.50;98.00;;;;;;5051235;28;20991;-64
2022/11/29 00:26:22;;;;;;;10.30;4.33;;;7.50;98.00;;;;;;5051470;28;20457;-64
2022/11/29 00:28:49;;;;;;;5.47;3.77;;;7.50;98.00;;;;;;5051394;28;20521;-64
2022/11/29 00:31:18;;;;;;;13.07;4.93;;;7.50;98.00;;;;;;5051308;28;20460;-65
2022/11/29 00:33:46;;;;;;;6.70;3.77;;;7.50;98.00;;;;;;5051422;28;20465;-64
2022/11/29 00:36:14;;;;;;;10.93;4.47;;;7.50;98.00;;;;;;5033551;28;20468;-64
2022/11/29 00:38:41;;;;;;;12.40;3.77;;;7.50;98.00;;;;;;5051312;28;20468;-65
2022/11/29 00:41:10;;;;;;;7.50;4.33;;;7.50;98.00;;;;;;5051242;28;20518;-64
2022/11/29 00:43:37;;;;;;;6.70;3.50;;;7.60;98.00;;;;;;5051284;28;20933;-64
2022/11/29 00:46:06;;;;;;;6.60;3.70;;;7.60;98.00;;;;;;5051328;28;20489;-64
2022/11/29 00:48:34;;;;;;;8.83;4.17;;;7.60;98.00;;;;;;5051338;28;20459;-65
2022/11/29 00:51:03;;;;;;;7.90;3.73;;;7.50;98.00;;;;;;5051392;28;20925;-65
2022/11/29 00:53:30;;;;;;;7.40;4.23;;;7.60;98.00;;;;;;5051309;28;20534;-64
2022/11/29 00:55:57;;;;;;;6.90;4.10;;;7.50;98.00;;;;;;5051188;28;20497;-65
2022/11/29 00:58:25;;;;;;;11.23;4.90;;;7.40;98.00;;;;;;5053457;28;20465;-64
2022/11/29 01:00:54;;;;;;;4.40;3.33;;;7.40;98.00;;;;;;5054911;28;20463;-64
2022/11/29 01:03:21;;;;;;;11.00;4.10;;;7.30;98.00;;;;;;5037180;28;20451;-64
2022/11/29 01:05:49;;;;;;;13.13;6.17;;;7.30;98.00;;;;;;5054883;28;20487;-64
2022/11/29 01:08:17;;;;;;;5.30;3.00;;;7.30;98.00;;;;;;5055006;28;20460;-65
2022/11/29 01:10:44;;;;;;;9.30;4.20;;;7.30;98.00;;;;;;5054919;28;20465;-64
2022/11/29 01:13:12;;;;;;;10.00;4.50;;;7.40;98.00;;;;;;5054590;28;20530;-64
2022/11/29 01:15:39;;;;;;;7.53;4.60;;;7.40;98.00;;;;;;5054722;28;21035;-65
2022/11/29 01:18:06;;;;;;;5.37;3.20;;;7.40;98.00;;;;;;5054570;28;20551;-64
2022/11/29 01:20:33;;;;;;;8.30;3.40;;;7.20;98.00;;;;;;5054520;28;20456;-64
2022/11/29 01:23:00;;;;;;;6.43;3.80;;;7.40;98.00;;;;;;5054475;28;20870;-65
2022/11/29 01:25:30;;;;;;;4.97;3.53;;;7.40;98.00;;;;;;5054252;28;20902;-65
2022/11/29 01:27:57;;;;;;;5.07;3.57;;;7.40;98.00;;;;;;5036918;28;21012;-65
2022/11/29 01:30:25;;;;;;;7.47;3.67;;;7.40;98.00;;;;;;5054392;28;20931;-64
2022/11/29 01:32:52;;;;;;;4.60;3.00;;;7.40;98.00;;;;;;5054299;28;20803;-64
2022/11/29 01:35:19;;;;;;;7.30;3.50;;;7.40;98.00;;;;;;5054229;28;20544;-64
2022/11/29 01:37:46;;;;;;;5.83;2.87;;;7.40;98.00;;;;;;5053872;28;20477;-65
2022/11/29 01:40:14;;;;;;;6.40;3.97;;;7.50;98.00;;;;;;5054185;28;20518;-65
2022/11/29 01:42:42;;;;;;;7.47;4.00;;;7.50;98.00;;;;;;5036340;28;20832;-65
2022/11/29 01:45:21;;;;;;;4.67;2.90;;;7.60;98.00;;;;;;5036424;28;20489;-65
2022/11/29 01:47:51;;;;;;;15.40;3.97;;;7.70;98.00;;;;;;5054205;28;20460;-65
2022/11/29 01:50:19;;;;;;;5.07;3.30;;;7.70;98.00;;;;;;5054035;28;20514;-65
2022/11/29 01:52:47;;;;;;;5.50;3.30;;;7.70;98.00;;;;;;5054062;28;20466;-64
2022/11/29 01:55:14;;;;;;;6.80;3.10;;;7.80;98.00;;;;;;5053783;28;20457;-65
2022/11/29 01:57:46;;;;;;;6.87;4.10;;;7.80;98.00;;;;;;5053138;28;20467;-64
2022/11/29 02:00:17;;;;;;;12.90;3.90;;;7.90;98.00;;;;;;5053106;28;20452;-65
2022/11/29 02:02:47;;;;;;;6.20;3.47;;;7.90;98.00;;;;;;5053222;28;20454;-65
2022/11/29 02:05:17;;;;;;;7.47;4.47;;;7.80;98.00;;;;;;5053961;28;20887;-65
2022/11/29 02:07:46;;;;;;;8.97;4.20;;;7.70;98.00;;;;;;5053515;28;20455;-65
2022/11/29 02:10:15;;;;;;;7.73;4.20;;;7.60;98.00;;;;;;5052692;28;20466;-65
2022/11/29 02:12:59;;;;;;;5.80;3.47;;;7.60;98.00;;;;;;5053421;28;20568;-64
2022/11/29 02:15:38;;;;;;;8.73;3.27;;;7.50;98.00;;;;;;5053489;28;20463;-65
2022/11/29 02:18:09;;;;;;;4.87;3.20;;;7.50;98.00;;;;;;5053137;28;20459;-64
2022/11/29 02:21:11;;;;;;;8.40;3.90;;;7.60;98.00;;;;;;5053459;28;20455;-64
2022/11/29 02:24:31;;;;;;;9.33;3.50;;;7.60;98.00;;;;;;5053081;28;20454;-65
2022/11/29 02:27:34;;;;;;;10.70;4.37;;;7.60;98.00;;;;;;5053286;28;20852;-65
2022/11/29 02:30:29;;;;;;;10.03;4.30;;;7.70;98.00;;;;;;5053255;28;20855;-65
2022/11/29 02:33:42;;;;;;;6.63;3.67;;;7.70;98.00;;;;;;5053083;28;20471;-65
2022/11/29 02:36:32;;;;;;;7.80;2.73;;;7.60;98.00;;;;;;5053170;28;20455;-65
2022/11/29 02:39:25;;;;;;;6.13;3.53;;;7.60;98.00;;;;;;5052828;28;20465;-64
2022/11/29 02:42:22;;;;;;;5.87;3.47;;;7.50;98.00;;;;;;5053282;28;20457;-65
2022/11/29 02:45:11;;;;;;;6.00;3.40;;;7.50;98.00;;;;;;5035355;28;20935;-65
2022/11/29 02:47:52;;;;;;;6.70;3.70;;;7.50;98.00;;;;;;5053048;28;20459;-64
2022/11/29 02:50:32;;;;;;;5.37;3.37;;;7.50;98.00;;;;;;5053076;28;20461;-65
2022/11/29 02:53:05;;;;;;;6.37;3.30;;;7.60;98.00;;;;;;5052956;28;20491;-64
2022/11/29 02:55:38;;;;;;;8.70;3.80;;;7.60;98.00;;;;;;5053090;28;20461;-64
2022/11/29 02:58:15;;;;;;;4.90;3.00;;;7.60;98.00;;;;;;5052918;28;20555;-64
2022/11/29 03:00:51;;;;;;;6.70;3.47;;;7.60;98.00;;;;;;5053008;28;20459;-65
2022/11/29 03:03:24;;;;;;;4.57;3.00;;;7.70;98.00;;;;;;5052441;28;20461;-65
2022/11/29 03:06:03;;;;;;;8.17;4.00;;;7.70;98.00;;;;;;5052589;28;20565;-65
2022/11/29 03:08:36;;;;;;;6.23;3.47;;;7.80;98.00;;;;;;5052030;28;20970;-65
2022/11/29 03:11:14;;;;;;;8.30;3.67;;;7.90;98.00;;;;;;5052493;28;20462;-65
2022/11/29 03:13:51;;;;;;;6.40;3.40;;;7.70;98.00;;;;;;5052244;28;20492;-64
2022/11/29 03:16:32;;;;;;;6.30;2.80;;;7.60;98.00;;;;;;5052252;28;20490;-64
2022/11/29 03:19:10;;;;;;;12.50;2.90;;;7.60;98.00;;;;;;5052315;28;20467;-64
2022/11/29 03:21:48;;;;;;;13.77;2.97;;;7.70;98.00;;;;;;5035309;28;20471;-65
2022/11/29 03:24:21;;;;;;;8.27;3.80;;;7.80;98.00;;;;;;5051970;28;20514;-65
2022/11/29 03:26:52;;;;;;;6.40;3.03;;;7.70;98.00;;;;;;5034286;28;20458;-65
2022/11/29 03:29:26;;;;;;;6.80;3.60;;;7.70;98.00;;;;;;5052141;28;20876;-64
2022/11/29 03:32:00;;;;;;;11.67;3.80;;;7.70;98.00;;;;;;5052328;28;20828;-64
2022/11/29 03:34:38;;;;;;;7.37;3.07;;;7.70;98.00;;;;;;5052198;28;20998;-65
2022/11/29 03:37:14;;;;;;;6.37;3.80;;;7.70;98.00;;;;;;5052091;28;20846;-64
2022/11/29 03:39:50;;;;;;;25.60;3.83;;;7.70;98.00;;;;;;5052386;28;20448;-64
2022/11/29 03:42:24;;;;;;;10.07;3.77;;;7.60;98.00;;;;;;5052091;28;20530;-64
2022/11/29 03:44:57;;;;;;;7.13;4.07;;;7.60;98.00;;;;;;5035228;28;20576;-64
2022/11/29 03:47:30;;;;;;;6.57;3.30;;;7.60;98.00;;;;;;5052047;28;20515;-65
2022/11/29 03:50:05;;;;;;;6.93;4.10;;;7.60;98.00;;;;;;5034499;28;20460;-64
2022/11/29 03:52:42;;;;;;;5.53;2.77;;;7.60;98.00;;;;;;5052215;28;20471;-64
2022/11/29 03:55:24;;;;;;;7.67;3.80;;;7.60;98.00;;;;;;5051928;28;20514;-65
2022/11/29 03:58:05;;;;;;;8.30;4.10;;;7.60;98.00;;;;;;5051650;28;20463;-65
2022/11/29 04:00:44;;;;;;;6.57;3.50;;;7.60;98.00;;;;;;5051936;28;20467;-65
2022/11/29 04:03:45;;;;;;;8.53;3.60;;;7.60;98.00;;;;;;5051472;28;20465;-65
2022/11/29 04:06:39;;;;;;;5.27;3.20;;;7.60;98.00;;;;;;5051493;28;20484;-64
2022/11/29 04:09:45;;;;;;;6.97;4.87;;;7.60;98.00;;;;;;5048834;28;21024;-65
2022/11/29 04:12:54;;;;;;;5.73;3.37;;;7.60;98.00;;;;;;5044857;28;20466;-65
2022/11/29 04:15:58;;;;;;;6.17;3.60;;;7.70;98.00;;;;;;5015367;28;20465;-65
2022/11/29 04:18:48;;;;;;;8.07;3.50;;;7.60;98.00;;;;;;5051394;28;20464;-64
2022/11/29 04:21:57;;;;;;;6.97;3.33;;;7.70;98.00;;;;;;5051429;28;20459;-65
2022/11/29 04:24:55;;;;;;;7.80;3.30;;;7.80;98.00;;;;;;5031287;28;20458;-64
2022/11/29 04:27:40;;;;;;;8.90;4.13;;;7.80;98.00;;;;;;5051552;28;20872;-65
2022/11/29 04:30:19;;;;;;;5.63;3.10;;;7.90;98.00;;;;;;5051577;28;20459;-65
2022/11/29 04:33:22;;;;;;;4.90;3.00;;;7.80;98.00;;;;;;5052966;28;20456;-64
2022/11/29 04:36:03;;;;;;;4.80;3.37;;;7.80;98.00;;;;;;5055679;28;20460;-65
2022/11/29 04:38:56;;;;;;;5.50;3.40;;;7.80;98.00;;;;;;5055349;28;20465;-65
2022/11/29 04:41:58;;;;;;;6.93;3.70;;;7.80;98.00;;;;;;5055589;28;20461;-65
2022/11/29 04:44:50;;;;;;;7.27;3.37;;;7.80;98.00;;;;;;5055414;28;20468;-65
2022/11/29 04:48:03;;;;;;;7.97;3.40;;;7.70;98.00;;;;;;5055537;28;20534;-64
2022/11/29 04:50:48;;;;;;;8.40;4.57;;;7.70;98.00;;;;;;4993750;28;20463;-64
2022/11/29 04:53:30;;;;;;;6.00;3.70;;;7.60;98.00;;;;;;4993128;28;20469;-64
2022/11/29 04:56:05;;;;;;;5.70;3.20;;;7.70;98.00;;;;;;5034158;28;20511;-64
2022/11/29 04:58:43;;;;;;;6.97;3.03;;;7.70;98.00;;;;;;5038149;28;20462;-65
2022/11/29 05:01:21;;;;;;;8.70;3.77;;;7.70;98.00;;;;;;5055066;28;20889;-65
2022/11/29 05:03:53;;;;;;;6.73;3.43;;;7.70;98.00;;;;;;5054667;28;20952;-65
2022/11/29 05:06:28;;;;;;;8.37;3.17;;;7.70;98.00;;;;;;5054680;28;20573;-64
2022/11/29 05:09:01;;;;;;;3.60;2.67;;;7.70;98.00;;;;;;5054685;28;20471;-64
2022/11/29 05:11:41;;;;;;;4.23;2.83;;;7.80;98.00;;;;;;5054781;28;20462;-64
2022/11/29 05:14:16;;;;;;;6.00;3.37;;;7.80;98.00;;;;;;5053306;28;20464;-64
2022/11/29 05:16:53;;;;;;;4.83;3.30;;;7.80;98.00;;;;;;5054739;28;20449;-65
2022/11/29 05:19:56;;;;;;;5.20;3.47;;;7.80;98.00;;;;;;5054351;28;21126;-64
2022/11/29 05:22:33;;;;;;;5.53;3.40;;;7.80;98.00;;;;;;5044152;28;20527;-64
2022/11/29 05:25:17;;;;;;;8.30;3.13;;;7.80;98.00;;;;;;5054496;28;20481;-65
2022/11/29 05:27:49;;;;;;;4.57;3.37;;;7.90;98.00;;;;;;5054567;28;20465;-65
2022/11/29 05:30:19;;;;;;;6.63;3.50;;;7.90;98.00;;;;;;5037136;28;20458;-64
2022/11/29 05:32:57;;;;;;;5.33;2.83;;;8.00;98.00;;;;;;5054448;28;20464;-65
2022/11/29 05:35:51;;;;;;;4.30;2.73;;;8.00;98.00;;;;;;5054498;28;20496;-64
2022/11/29 05:38:48;;;;;;;6.13;2.90;;;8.00;98.00;;;;;;5047748;28;20981;-64
2022/11/29 05:41:31;;;;;;;6.07;3.13;;;8.00;98.00;;;;;;5054546;28;20545;-65
2022/11/29 05:44:07;;;;;;;5.30;2.90;;;7.90;98.00;;;;;;5054124;28;20455;-65
2022/11/29 05:46:42;;;;;;;4.10;2.43;;;7.90;98.00;;;;;;5054227;28;20484;-65
2022/11/29 05:49:20;;;;;;;6.20;2.90;;;7.80;98.00;;;;;;5035865;28;20459;-64
2022/11/29 05:51:57;;;;;;;7.07;3.30;;;7.90;98.00;;;;;;5053791;28;20519;-65
2022/11/29 05:54:29;;;;;;;5.30;3.20;;;7.90;98.00;;;;;;5036114;28;20456;-65
2022/11/29 05:57:08;;;;;;;4.43;3.03;;;7.90;98.00;;;;;;5054034;28;20456;-65
2022/11/29 05:59:39;;;;;;;2.53;2.20;;;7.90;98.00;;;;;;5053825;28;20821;-64
2022/11/29 06:02:19;;;;;;;3.57;2.17;;;7.90;98.00;;;;;;5053896;28;20461;-65
2022/11/29 06:05:05;;;;;;;6.23;3.43;;;7.90;98.00;;;;;;5036075;28;20496;-65
2022/11/29 06:07:40;;;;;;;2.40;2.10;;;7.90;98.00;;;;;;5053836;28;20483;-64
2022/11/29 06:10:11;;;;;;;8.53;3.23;;;8.00;98.00;;;;;;5053353;28;20468;-65
2022/11/29 06:12:48;;;;;;;5.07;2.43;;;8.10;98.00;;;;;;5053586;28;21210;-65
2022/11/29 06:15:41;;;;;;;4.20;2.60;;;8.20;98.00;;;;;;5053473;28;20479;-64
2022/11/29 06:18:29;;;;;;;6.30;3.03;;;8.30;98.00;;;;;;5053481;28;20876;-64
2022/11/29 06:21:15;;;;;;;6.17;3.60;;;8.50;98.00;;;;;;5053558;28;20461;-65
2022/11/29 06:24:09;;;;;;;5.67;3.40;;;8.50;98.00;;;;;;5053318;28;20457;-65
2022/11/29 06:26:54;;;;;;;7.00;3.40;;;8.50;98.00;;;;;;5053146;28;20549;-65
2022/11/29 06:29:31;;;;;;;7.33;3.40;;;8.50;98.00;;;;;;5053298;28;20462;-64
2022/11/29 06:32:07;;;;;;;5.90;3.07;;;8.50;98.00;;;;;;5053359;28;20462;-64
2022/11/29 06:34:42;;;;;;;8.13;4.13;;;8.40;98.00;;;;;;5053508;28;20458;-65
2022/11/29 06:37:19;;;;;;;7.07;4.13;;;8.40;98.00;;;;;;5053435;28;21052;-65
2022/11/29 06:39:46;;;;;;;5.40;3.60;;;8.50;98.00;;;;;;5053249;28;20460;-64
2022/11/29 06:42:15;;;;;;;6.00;3.97;;;8.40;98.00;;;;;;5053037;28;20458;-65
2022/11/29 06:44:42;;;;;;;12.50;4.23;;;8.30;98.00;;;;;;5052049;28;20452;-65
2022/11/29 06:47:17;;;;;;;8.80;3.97;;;8.20;98.00;;;;;;5052644;28;20512;-65
2022/11/29 06:49:49;;;;;;;8.03;4.90;;;8.10;98.00;;;;;;5052933;28;20513;-65
2022/11/29 06:52:26;;;;;;;12.47;4.33;;;8.20;98.00;;;;;;5052805;28;20461;-65
2022/11/29 06:55:14;;;;;;;9.03;4.07;;;8.10;98.00;;;;;;5052346;28;20467;-65
2022/11/29 06:58:01;;;;;;;5.93;3.43;;;8.20;98.00;;;;;;5052766;28;20554;-65
2022/11/29 07:00:36;;;;;;;6.63;3.87;;;8.20;98.00;;;;;;5052608;28;20790;-65
2022/11/29 07:03:21;;;;;;;6.37;3.90;;;8.10;98.00;;;;;;5052593;28;20464;-65
2022/11/29 07:05:49;;;;;;;6.10;3.30;;;8.10;98.00;;;;;;5052632;28;20483;-65
2022/11/29 07:08:18;;;;;;;6.50;3.37;;;8.20;98.00;;;;;;5034947;28;20519;-65
2022/11/29 07:10:48;;;;;;;10.27;4.03;;;8.20;98.00;;;;;;5052602;28;20867;-65
2022/11/29 07:13:22;;;;;;;9.40;4.43;;;8.20;98.00;;;;;;5046646;28;20489;-65
2022/11/29 07:15:57;;;;;;;6.40;3.70;;;8.20;98.00;;;;;;5032494;28;20465;-65
2022/11/29 07:18:33;;;;;;;4.50;3.00;;;8.20;98.00;;;;;;5031002;28;20465;-65
2022/11/29 07:21:10;;;;;;;6.07;3.40;;;8.20;98.00;;;;;;5032532;28;20451;-65
2022/11/29 07:23:49;;;;;;;5.70;3.33;;;8.20;98.00;;;;;;5032525;28;20939;-64
2022/11/29 07:26:22;;;;;;;7.13;3.67;;;8.30;98.00;;;;;;5032370;28;20485;-64
2022/11/29 07:29:05;;;;;;;6.60;3.80;;;8.30;98.00;;;;;;5031877;28;20458;-61
2022/11/29 07:31:45;;;;;;;5.37;3.33;;;8.30;98.00;;;;;;5031768;28;20463;-61
2022/11/29 07:34:21;;;;;;;5.07;3.00;;;8.50;98.00;;;;;;5031789;28;20534;-62
2022/11/29 07:36:59;;;;;;;4.93;2.67;;;8.50;98.00;;;;;;5030994;28;20456;-61
2022/11/29 07:39:39;;;;;;;6.90;3.70;;;8.40;98.00;;;;;;5031949;28;20829;-61
2022/11/29 07:42:10;;;;;;;6.80;3.17;;;8.50;98.00;;;;;;5031872;28;20488;-61
2022/11/29 07:44:49;;;;;;;3.20;2.47;;;8.40;98.00;;;;;;5031872;28;20460;-61
2022/11/29 07:47:16;;;;;;;5.13;3.37;;;8.40;98.00;;;;;;5031875;28;20500;-61
2022/11/29 07:49:44;;;;;;;9.27;3.50;;;8.40;98.00;;;;;;5031965;28;20469;-61
2022/11/29 07:52:13;;;;;;;12.93;3.50;;;8.40;98.00;;;;;;5031841;28;20541;-61
2022/11/29 07:54:40;;;;;;;6.47;3.23;;;8.50;98.00;;;;;;5032053;28;20461;-61
2022/11/29 07:57:07;;;;;;;5.40;3.20;;;8.60;98.00;;;;;;5031900;28;20465;-61
2022/11/29 07:59:35;;;;;;;2.23;2.07;;;8.60;98.00;;;;;;5031750;28;20555;-61
2022/11/29 08:02:04;;;;;;;8.30;3.83;;;8.70;98.00;;;;;;5032030;28;20797;-61
2022/11/29 08:04:31;;;;;;;4.27;2.07;;;8.60;98.00;;;;;;5031810;28;20461;-61
2022/11/29 08:06:58;;;;;;;7.50;3.80;;;8.70;98.00;;;;;;5029073;28;20484;-61
2022/11/29 08:09:26;;;;;;;7.90;4.20;;;8.80;98.00;;;;;;5035442;28;20456;-61
2022/11/29 08:11:53;;;;;;;4.70;2.87;;;8.70;98.00;;;;;;5035827;28;20462;-61
2022/11/29 08:14:20;;;;;;;5.03;3.00;;;8.80;98.00;;;;;;5035836;28;20481;-61
2022/11/29 08:16:47;;;;;;;5.47;3.00;;;8.80;98.00;;;;;;5036033;28;20464;-61
2022/11/29 08:19:15;;;;;;;6.20;3.40;;;8.70;98.00;;;;;;5035741;28;20603;-61
2022/11/29 08:21:45;;;;;;;6.40;3.43;;;8.70;98.00;;;;;;5035857;28;20461;-61
2022/11/29 08:24:12;;;;;;;3.40;2.50;;;8.70;98.00;;;;;;5035889;28;20466;-61
2022/11/29 08:26:40;;;;;;;5.53;3.07;;;8.80;98.00;;;;;;5035768;28;20485;-61
2022/11/29 08:29:07;;;;;;;4.00;2.63;;;8.80;98.00;;;;;;5031442;28;20549;-61
2022/11/29 08:31:34;;;;;;;5.63;3.37;;;8.80;98.00;;;;;;5033121;28;20469;-61
2022/11/29 08:34:01;;;;;;;4.60;3.00;;;9.00;98.00;;;;;;5032707;28;21130;-61
2022/11/29 08:36:30;;;;;;;4.33;2.80;;;8.90;98.00;;;;;;5032725;28;20456;-61
2022/11/29 08:38:57;;;;;;;4.77;2.80;;;9.00;98.00;;;;;;5032547;28;20473;-61
2022/11/29 08:41:24;;;;;;;7.30;3.50;;;8.90;98.00;;;;;;5032765;28;20469;-61
2022/11/29 08:43:51;;;;;;;4.53;2.63;;;8.70;98.00;;;;;;5032162;28;20888;-61
2022/11/29 08:46:18;;;;;;;6.40;3.50;;;8.60;98.00;;;;;;5032432;28;20497;-61
2022/11/29 08:48:46;;;;;;;8.43;3.63;;;8.70;98.00;;;;;;5032303;28;20461;-61
2022/11/29 08:51:13;;;;;;;8.33;2.70;;;8.70;98.00;;;;;;5030201;28;20470;-61
2022/11/29 08:53:43;;;;;;;2.83;2.63;;;8.70;98.00;;;;;;5032352;28;20474;-61
2022/11/29 08:56:12;;;;;;;4.17;3.20;;;8.80;98.00;;;;;;5028949;28;20477;-61
2022/11/29 08:58:42;;;;;;;4.13;3.23;;;8.90;98.00;;;;;;5031956;28;20811;-61
2022/11/29 09:01:14;;;;;;;5.27;3.17;;;8.80;98.00;;;;;;5032229;28;20560;-61
2022/11/29 09:04:01;;;;;;;4.70;2.50;;;8.80;98.00;;;;;;5032400;28;20844;-61
2022/11/29 09:06:30;;;;;;;5.60;2.90;;;8.90;98.00;;;;;;5032503;28;20493;-61
2022/11/29 09:09:00;;;;;;;3.57;2.43;;;9.00;98.00;;;;;;5032339;28;20473;-62
2022/11/29 09:11:29;;;;;;;5.77;3.80;;;9.00;98.00;;;;;;5032408;28;20466;-62
2022/11/29 09:13:58;;;;;;;3.30;2.33;;;8.90;98.00;;;;;;5031500;28;20470;-61
2022/11/29 09:16:26;;;;;;;5.73;2.33;;;8.90;98.00;;;;;;5031906;28;20841;-61
2022/11/29 09:18:54;;;;;;;4.27;2.60;;;8.80;98.00;;;;;;5030359;28;20465;-61
2022/11/29 09:21:23;;;;;;;4.77;3.00;;;8.90;98.00;;;;;;5031609;28;20461;-61
2022/11/29 09:23:57;;;;;;;3.10;2.40;;;8.90;98.00;;;;;;5031751;28;20497;-61
2022/11/29 09:26:28;;;;;;;7.10;2.80;;;9.00;98.00;;;;;;5031705;28;20493;-61
2022/11/29 09:28:56;;;;;;;2.97;2.27;;;9.00;98.00;;;;;;5031389;28;20515;-61
2022/11/29 09:31:23;;;;;;;5.03;2.90;;;8.90;98.00;;;;;;5031481;28;20827;-61
2022/11/29 09:33:50;;;;;;;7.13;2.93;;;8.80;98.00;;;;;;5031482;28;20553;-61
2022/11/29 09:36:18;;;;;;;4.87;2.33;;;8.80;98.00;;;;;;5031676;28;20465;-61
2022/11/29 09:38:45;;;;;;;5.70;3.03;;;9.00;98.00;;;;;;5031263;28;20477;-61
2022/11/29 09:41:32;;;;;;;4.00;2.70;;;9.10;98.00;;;;;;5031477;28;20938;-61
2022/11/29 09:44:05;;;;;;;7.90;3.20;;;9.10;98.00;;;;;;5031607;28;20474;-63
2022/11/29 09:46:43;;;;;;;3.20;2.70;;;9.00;98.00;;;;;;5031688;28;20518;-62
2022/11/29 09:49:31;;;;;;;4.00;2.37;;;9.10;98.00;;;;;;5031021;28;20466;-62
2022/11/29 09:52:05;;;;;;;9.60;2.77;;;9.10;98.00;;;;;;5017854;28;20457;-61
2022/11/29 09:54:42;;;;;;;6.00;3.07;;;9.20;98.00;;;;;;5027385;28;20476;-61
2022/11/29 09:57:16;;;;;;;5.13;2.90;;;9.30;98.00;;;;;;5028621;28;20928;-61
2022/11/29 09:59:47;;;;;;;4.70;2.13;;;9.20;98.00;;;;;;5030600;28;20457;-61
2022/11/29 10:02:18;;;;;;;5.77;2.47;;;9.30;98.00;;;;;;5030350;28;20468;-61
2022/11/29 10:04:49;;;;;;;2.97;2.30;;;9.30;98.00;;;;;;5031282;28;20451;-61
2022/11/29 10:07:21;;;;;;;3.10;2.20;;;9.40;98.00;;;;;;5031146;28;20521;-61
2022/11/29 10:09:54;;;;;;;4.43;2.67;;;9.60;98.00;;;;;;5031081;28;20493;-61
2022/11/29 10:12:31;;;;;;;2.90;2.00;;;9.50;98.00;;;;;;5031500;28;20462;-61
2022/11/29 10:15:08;;;;;;;4.67;3.20;;;9.50;98.00;;;;;;5029525;28;20960;-63
2022/11/29 10:17:39;;;;;;;4.60;2.30;;;9.50;98.00;;;;;;5030391;28;20791;-61
2022/11/29 10:20:12;;;;;;;3.97;2.50;;;9.50;98.00;;;;;;5030862;28;20463;-62
2022/11/29 10:22:48;;;;;;;4.83;2.33;;;9.60;98.00;;;;;;5030397;28;20459;-61
2022/11/29 10:25:21;;;;;;;6.60;3.03;;;9.60;98.00;;;;;;5030774;28;20540;-62
2022/11/29 10:27:50;;;;;;;4.40;2.30;;;9.60;98.00;;;;;;5030645;28;20482;-61
2022/11/29 10:30:18;;;;;;;4.53;2.23;;;9.70;98.00;;;;;;5029726;28;20461;-61
2022/11/29 10:32:48;;;;;;;2.63;2.20;;;9.70;98.00;;;;;;5030528;28;20460;-61
2022/11/29 10:35:18;;;;;;;3.37;2.50;;;9.60;98.00;;;;;;5030541;28;20458;-61
2022/11/29 10:37:46;;;;;;;4.10;2.20;;;9.70;98.00;;;;;;5030026;28;20969;-62
2022/11/29 10:40:17;;;;;;;3.87;2.50;;;9.50;98.00;;;;;;5030215;28;20454;-61
2022/11/29 10:42:54;;;;;;;3.73;2.57;;;9.50;98.00;;;;;;5030305;28;20458;-62
2022/11/29 10:45:29;;;;;;;3.03;2.50;;;9.60;98.00;;;;;;5029934;28;20487;-62
2022/11/29 10:48:02;;;;;;;2.40;2.13;;;9.80;98.00;;;;;;5029647;28;20501;-62
2022/11/29 10:50:31;;;;;;;5.50;2.93;;;9.90;98.00;;;;;;5028578;28;20858;-61
2022/11/29 10:53:05;;;;;;;4.30;2.30;;;9.90;98.00;;;;;;5029591;28;20839;-61
2022/11/29 10:55:38;;;;;;;5.97;2.70;;;10.00;98.00;;;;;;5029691;28;20465;-61
2022/11/29 10:58:12;;;;;;;3.57;2.40;;;10.00;98.00;;;;;;5029495;28;20484;-62
2022/11/29 11:00:53;;;;;;;3.27;2.00;;;9.90;98.00;;;;;;5029200;28;20471;-62
2022/11/29 11:03:36;;;;;;;2.47;2.10;;;9.90;98.00;;;;;;5028222;28;20464;-62
2022/11/29 11:06:08;;;;;;;3.53;1.70;;;9.90;98.00;;;;;;5027681;28;20459;-62
2022/11/29 11:08:37;;;;;;;7.13;2.67;;;9.80;98.00;;;;;;5027154;28;20490;-62
2022/11/29 11:11:07;;;;;;;6.90;2.83;;;9.80;98.00;;;;;;5028588;28;20454;-62
2022/11/29 11:13:35;;;;;;;3.97;2.13;;;9.80;98.00;;;;;;5027595;28;20552;-62
2022/11/29 11:16:17;;;;;;;5.60;2.83;;;9.80;98.00;;;;;;5027617;28;20461;-62
2022/11/29 11:18:48;;;;;;;3.70;2.10;;;9.80;98.00;;;;;;5029070;28;20450;-61
2022/11/29 11:21:17;;;;;;;4.97;2.17;;;9.80;98.00;;;;;;5029130;28;20466;-61
2022/11/29 11:23:57;;;;;;;5.53;2.77;;;9.90;98.00;;;;;;5029074;28;20527;-62
2022/11/29 11:26:25;;;;;;;4.73;2.87;;;9.80;98.00;;;;;;5028923;28;20488;-62
2022/11/29 11:28:56;;;;;;;4.50;2.33;;;9.80;98.00;;;;;;5028695;28;20517;-61
2022/11/29 11:31:31;;;;;;;3.57;2.10;;;9.90;98.00;;;;;;5028901;28;20486;-61
2022/11/29 11:34:24;;;;;;;5.33;3.10;;;9.90;98.00;;;;;;5028690;28;20451;-62
2022/11/29 11:36:52;;;;;;;5.50;2.97;;;9.80;98.00;;;;;;5028467;28;20492;-61
2022/11/29 11:39:21;;;;;;;5.33;2.60;;;9.70;98.00;;;;;;5028877;28;20956;-62
2022/11/29 11:44:40;;;;;;;3.47;2.47;;;9.70;98.00;;;;;;5028810;28;20462;-61
2022/11/29 11:47:15;;;;;;;3.20;2.23;;;9.60;98.00;;;;;;5028622;28;21028;-62
2022/11/29 11:49:49;;;;;;;2.93;2.27;;;9.60;98.00;;;;;;5027600;28;20450;-61
2022/11/29 11:52:22;;;;;;;8.40;3.03;;;9.60;98.00;;;;;;5011299;28;20465;-62
2022/11/29 11:54:54;;;;;;;5.00;2.90;;;9.60;98.00;;;;;;5028770;28;20462;-61
2022/11/29 11:57:23;;;;;;;4.53;2.60;;;9.60;98.00;;;;;;5028587;28;21077;-61
2022/11/29 11:59:52;;;;;;;4.53;2.63;;;9.50;98.00;;;;;;5028994;28;20464;-61
2022/11/29 12:02:28;;;;;;;5.93;3.30;;;9.50;98.00;;;;;;5028859;28;20463;-61
2022/11/29 12:04:58;;;;;;;3.80;2.80;;;9.50;98.00;;;;;;5029087;28;20465;-63
2022/11/29 12:07:30;;;;;;;5.27;2.70;;;9.50;98.00;;;;;;5028509;28;20493;-62
2022/11/29 12:10:03;;;;;;;4.70;2.60;;;9.60;98.00;;;;;;5028520;28;20460;-63
2022/11/29 12:12:34;;;;;;;4.17;2.80;;;9.60;98.00;;;;;;5028456;28;20459;-62
2022/11/29 12:15:04;;;;;;;4.20;2.63;;;9.60;98.00;;;;;;5026602;28;20455;-62
2022/11/29 12:17:37;;;;;;;2.57;2.33;;;9.60;98.00;;;;;;5027633;28;20831;-62
2022/11/29 12:20:17;;;;;;;3.80;2.93;;;9.50;98.00;;;;;;5016843;28;20468;-62
2022/11/29 12:22:54;;;;;;;5.50;2.80;;;9.50;98.00;;;;;;5028380;28;20467;-62
2022/11/29 12:25:25;;;;;;;3.10;2.57;;;9.40;98.00;;;;;;5028374;28;20490;-62
2022/11/29 12:27:55;;;;;;;5.13;3.07;;;9.50;98.00;;;;;;5028157;28;21058;-62
2022/11/29 12:30:22;;;;;;;7.40;2.97;;;9.40;98.00;;;;;;5027677;28;20467;-61
2022/11/29 12:33:04;;;;;;;3.60;2.50;;;9.40;98.00;;;;;;5028242;28;20839;-61
2022/11/29 12:35:50;;;;;;;5.47;2.80;;;9.50;98.00;;;;;;5026855;28;20553;-62
2022/11/29 12:38:29;;;;;;;4.40;3.13;;;9.50;98.00;;;;;;5027664;28;20536;-61
2022/11/29 12:41:04;;;;;;;4.17;2.57;;;9.40;98.00;;;;;;5027750;28;20464;-62
2022/11/29 12:43:42;;;;;;;4.63;3.10;;;9.30;98.00;;;;;;5026238;28;22063;-62
2022/11/29 12:46:15;;;;;;;5.90;2.57;;;9.30;98.00;;;;;;5028119;28;21003;-61
2022/11/29 12:48:55;;;;;;;8.57;3.60;;;9.30;98.00;;;;;;5028166;28;20523;-61
2022/11/29 12:51:29;;;;;;;5.33;2.83;;;9.20;98.00;;;;;;5027156;28;20476;-61
2022/11/29 12:54:16;;;;;;;4.77;2.10;;;9.10;98.00;;;;;;5029815;28;20464;-62
2022/11/29 12:56:50;;;;;;;3.57;2.10;;;9.10;98.00;;;;;;5031813;28;20463;-62
2022/11/29 12:59:29;;;;;;;2.63;1.80;;;9.60;98.00;;;;;;5031882;28;20470;-63
2022/11/29 13:02:04;;;;;;;4.90;2.43;;;10.30;98.00;;;;;;5015230;28;20959;-62
2022/11/29 13:04:43;;;;;;;4.37;2.50;;;11.10;98.00;;;;;;5031626;28;20459;-62
2022/11/29 13:07:25;;;;;;;5.30;2.83;;;11.50;98.00;;;;;;5031461;28;20533;-62
2022/11/29 13:10:26;;;;;;;4.10;2.60;;;11.20;98.00;;;;;;5031756;28;20458;-61
2022/11/29 13:12:55;;;;;;;5.30;3.13;;;10.90;98.00;;;;;;5026958;28;20458;-62
2022/11/29 13:15:34;;;;;;;4.50;2.73;;;10.50;98.00;;;;;;5030336;28;21041;-62
2022/11/29 13:18:11;;;;;;;4.10;2.57;;;10.40;98.00;;;;;;5031308;28;20840;-62
2022/11/29 13:20:45;;;;;;;4.50;2.70;;;10.20;98.00;;;;;;5032044;28;20455;-63
2022/11/29 13:23:19;;;;;;;4.27;2.50;;;10.20;98.00;;;;;;5031815;28;20465;-61
2022/11/29 13:25:50;;;;;;;5.53;3.07;;;10.00;98.00;;;;;;5032301;28;20487;-61
2022/11/29 13:28:22;;;;;;;4.43;3.30;;;9.90;98.00;;;;;;5031914;28;20494;-62
2022/11/29 13:30:51;;;;;;;3.10;1.97;;;9.90;98.00;;;;;;5031845;28;20461;-61
2022/11/29 13:33:26;;;;;;;8.80;2.87;;;9.80;98.00;;;;;;5031427;28;20458;-62
2022/11/29 13:36:06;;;;;;;3.00;2.40;;;9.70;98.00;;;;;;5010116;28;20513;-62
2022/11/29 13:38:43;;;;;;;3.73;2.33;;;9.60;98.00;;;;;;5032005;28;20473;-62
2022/11/29 13:41:20;;;;;;;5.30;2.70;;;9.50;98.00;;;;;;5031893;28;20459;-62